Time;durP1;ratioP1;P1;durP2;ratioP2;P2;SDS_P1;SDS_P2;PMS_P1;PMS_P2;Temp;Humidity;BMP_temperature;BMP_pressure;BME280_temperature;BME280_humidity;BME280_pressure;Samples;Min_cycle;Max_cycle;Signal;HPM_P1;HPM_P2
2022/01/23 00:05:41;;;;;;;11.65;7.05;;;4.80;99.90;;;;;;12374973;28;20056;-87
2022/01/23 00:11:50;;;;;;;13.75;7.53;;;4.80;99.90;;;;;;12374996;28;20510;-87
2022/01/23 00:17:52;;;;;;;12.27;7.70;;;4.80;99.90;;;;;;12382059;28;20132;-88
2022/01/23 00:36:19;;;;;;;14.88;8.35;;;4.80;99.90;;;;;;12391898;28;20058;-86
2022/01/23 00:42:22;;;;;;;12.57;8.23;;;4.80;99.90;;;;;;12373598;28;20068;-88
2022/01/23 00:48:34;;;;;;;15.70;10.18;;;4.80;99.90;;;;;;12395661;28;20057;-87
2022/01/23 00:54:36;;;;;;;24.17;11.68;;;4.80;99.90;;;;;;12388239;28;20101;-87
2022/01/23 01:00:41;;;;;;;19.38;11.93;;;4.80;99.90;;;;;;12389342;28;20141;-87
2022/01/23 01:06:44;;;;;;;19.55;11.38;;;4.80;99.90;;;;;;12387479;28;20042;-87
2022/01/23 01:12:48;;;;;;;22.38;13.05;;;4.80;99.90;;;;;;12403797;28;20085;-88
2022/01/23 01:31:44;;;;;;;23.77;15.35;;;4.80;99.90;;;;;;12394280;28;20087;-87
2022/01/23 01:37:46;;;;;;;28.27;16.37;;;4.80;99.90;;;;;;12389509;28;20144;-86
2022/01/23 01:43:49;;;;;;;27.48;16.38;;;4.80;99.90;;;;;;12410768;28;20191;-87
2022/01/23 01:49:51;;;;;;;24.63;15.90;;;4.80;99.90;;;;;;12394530;28;20531;-87
2022/01/23 01:55:56;;;;;;;23.58;14.27;;;4.80;99.90;;;;;;12440115;28;20030;-87
2022/01/23 02:58:48;;;;;;;17.40;8.95;;;4.70;99.90;;;;;;12396965;28;20136;-87
2022/01/23 03:04:53;;;;;;;14.80;7.93;;;4.70;99.90;;;;;;12378025;28;21111;-87
2022/01/23 03:11:37;;;;;;;15.30;8.07;;;4.60;99.90;;;;;;12398362;28;20137;-86
2022/01/23 03:30:17;;;;;;;14.73;8.63;;;4.40;99.90;;;;;;12395505;28;21086;-87
2022/01/23 03:36:19;;;;;;;14.82;8.13;;;4.40;99.90;;;;;;12395337;28;20487;-87
2022/01/23 03:42:21;;;;;;;16.73;8.32;;;4.30;99.90;;;;;;12386023;28;20049;-87
2022/01/23 03:54:28;;;;;;;17.75;9.25;;;4.20;99.90;;;;;;12390097;28;20068;-87
2022/01/23 04:00:31;;;;;;;21.25;10.68;;;4.20;99.90;;;;;;12382782;28;20063;-87
2022/01/23 04:06:33;;;;;;;20.20;11.77;;;4.30;99.90;;;;;;12373480;28;20057;-86
2022/01/23 05:09:11;;;;;;;25.10;12.27;;;4.20;99.90;;;;;;12397961;28;20054;-87
2022/01/23 05:15:13;;;;;;;26.20;13.48;;;4.10;99.90;;;;;;12402874;28;20146;-86
2022/01/23 05:27:17;;;;;;;24.13;13.88;;;4.00;99.90;;;;;;12401433;28;20053;-87
2022/01/23 05:33:19;;;;;;;25.17;13.18;;;4.00;99.90;;;;;;12384566;28;20046;-87
2022/01/23 05:39:24;;;;;;;22.90;13.30;;;3.90;99.90;;;;;;12383825;28;20411;-86
2022/01/23 05:45:26;;;;;;;21.00;12.48;;;4.00;99.90;;;;;;12386134;28;20137;-87
2022/01/23 05:51:28;;;;;;;22.83;12.15;;;4.10;99.90;;;;;;12401882;28;20517;-87
2022/01/23 05:57:30;;;;;;;22.83;12.98;;;4.10;99.90;;;;;;12402779;28;20921;-87
2022/01/23 06:03:32;;;;;;;24.33;12.68;;;4.10;99.90;;;;;;12383383;28;20166;-86
2022/01/23 06:09:37;;;;;;;28.13;12.50;;;4.10;99.90;;;;;;12397189;28;20169;-87
2022/01/23 06:15:39;;;;;;;24.85;13.43;;;4.10;99.90;;;;;;12380448;28;20104;-87
2022/01/23 06:21:41;;;;;;;21.73;12.40;;;4.10;99.90;;;;;;12394949;28;20049;-87
2022/01/23 06:27:43;;;;;;;24.85;13.30;;;4.20;99.90;;;;;;12381789;28;20100;-86
2022/01/23 06:33:45;;;;;;;32.03;14.07;;;4.10;99.90;;;;;;12389842;28;20082;-88
2022/01/23 06:39:47;;;;;;;24.83;14.50;;;4.20;99.90;;;;;;12385243;28;20066;-87
2022/01/23 06:45:49;;;;;;;27.50;14.13;;;4.10;99.90;;;;;;12382688;28;20076;-87
2022/01/23 06:51:51;;;;;;;31.23;14.93;;;4.00;99.90;;;;;;12410182;28;20551;-87
2022/01/23 06:57:53;;;;;;;26.52;13.25;;;3.90;99.90;;;;;;12397433;28;20137;-87
2022/01/23 07:03:55;;;;;;;28.83;14.52;;;3.70;99.90;;;;;;12383830;28;20164;-87
2022/01/23 07:09:57;;;;;;;32.47;16.02;;;3.80;99.90;;;;;;12382643;28;20046;-87
2022/01/23 07:16:02;;;;;;;32.40;16.17;;;3.80;99.90;;;;;;12381244;28;20046;-87
2022/01/23 07:22:04;;;;;;;35.95;18.10;;;3.80;99.90;;;;;;12386260;28;20049;-88
2022/01/23 07:28:11;;;;;;;37.75;17.92;;;3.90;99.90;;;;;;12389475;28;20101;-87
2022/01/23 07:34:13;;;;;;;38.40;17.85;;;3.90;99.90;;;;;;12379871;28;20050;-87
2022/01/23 07:40:15;;;;;;;41.38;16.77;;;4.00;99.90;;;;;;12386759;28;20105;-88
2022/01/23 07:46:19;;;;;;;29.50;15.77;;;4.10;99.90;;;;;;12393691;28;20141;-88
2022/01/23 07:52:21;;;;;;;41.13;19.20;;;4.10;99.90;;;;;;12393490;28;20073;-89
2022/01/23 07:58:23;;;;;;;34.72;17.38;;;4.20;99.90;;;;;;12384927;28;20115;-87
2022/01/23 08:04:25;;;;;;;32.78;16.23;;;4.20;99.90;;;;;;12379563;28;20038;-88
2022/01/23 08:10:27;;;;;;;33.75;16.13;;;4.20;99.90;;;;;;12387121;28;20124;-87
2022/01/23 08:16:29;;;;;;;30.80;15.80;;;4.30;99.90;;;;;;12374429;28;20087;-87
2022/01/23 08:22:33;;;;;;;32.83;15.45;;;4.40;99.90;;;;;;12384620;28;20042;-88
2022/01/23 08:28:35;;;;;;;29.33;15.00;;;4.50;99.90;;;;;;12386409;28;20137;-88
2022/01/23 08:34:38;;;;;;;27.13;15.50;;;4.50;99.90;;;;;;12380032;28;20054;-88
2022/01/23 08:46:43;;;;;;;25.65;14.48;;;4.60;99.90;;;;;;12390865;28;20054;-87
2022/01/23 08:52:45;;;;;;;24.75;14.13;;;4.60;99.90;;;;;;12387620;28;20088;-88
2022/01/23 08:58:47;;;;;;;24.92;13.90;;;4.70;99.90;;;;;;12373076;28;20525;-87
2022/01/23 09:04:49;;;;;;;21.55;11.68;;;4.80;99.90;;;;;;12381456;28;20047;-88
2022/01/23 09:10:53;;;;;;;23.27;11.30;;;4.80;99.90;;;;;;12387624;28;20104;-89
2022/01/23 09:16:56;;;;;;;19.50;10.85;;;5.00;99.90;;;;;;12377811;28;20065;-87
2022/01/23 09:22:57;;;;;;;17.65;10.10;;;5.10;99.90;;;;;;12369253;28;20042;-88
2022/01/23 09:29:01;;;;;;;19.60;11.13;;;5.10;99.90;;;;;;12374384;28;20082;-88
2022/01/23 09:35:03;;;;;;;18.87;11.10;;;5.20;99.90;;;;;;12374675;28;20958;-88
2022/01/23 09:41:05;;;;;;;21.60;10.75;;;5.20;99.90;;;;;;12372176;28;20450;-87
2022/01/23 09:47:10;;;;;;;17.88;10.55;;;5.30;99.90;;;;;;12385247;28;20537;-87
2022/01/23 09:53:14;;;;;;;23.08;11.77;;;5.40;99.90;;;;;;12377577;28;20570;-87
2022/01/23 09:59:16;;;;;;;21.13;10.55;;;5.60;99.90;;;;;;12378612;28;20491;-87
2022/01/23 10:05:18;;;;;;;15.77;10.07;;;5.50;99.90;;;;;;12387991;28;20142;-87
2022/01/23 10:11:21;;;;;;;16.38;9.48;;;5.50;99.90;;;;;;12398696;28;20052;-87
2022/01/23 10:17:23;;;;;;;14.43;8.40;;;5.50;99.90;;;;;;12396343;28;20156;-87
2022/01/23 10:23:26;;;;;;;16.65;9.52;;;5.60;99.90;;;;;;12386849;28;20052;-87
2022/01/23 10:29:36;;;;;;;15.93;8.43;;;5.60;99.90;;;;;;12387031;28;20042;-87
2022/01/23 10:36:03;;;;;;;13.98;7.82;;;5.60;99.90;;;;;;12388201;28;20058;-87
2022/01/23 10:48:45;;;;;;;14.85;7.60;;;5.90;99.90;;;;;;12395448;28;20050;-87
2022/01/23 10:54:47;;;;;;;11.70;7.20;;;6.10;99.90;;;;;;12396002;28;20582;-87
2022/01/23 11:00:50;;;;;;;11.82;6.80;;;6.20;99.90;;;;;;12393004;28;20131;-87
2022/01/23 11:07:01;;;;;;;12.52;7.40;;;6.20;99.90;;;;;;12393105;28;20459;-87
2022/01/23 11:19:08;;;;;;;13.40;7.33;;;6.20;99.90;;;;;;12422033;28;20050;-88
2022/01/23 11:25:11;;;;;;;14.30;8.00;;;6.20;99.90;;;;;;12406850;28;20154;-88
2022/01/23 11:31:19;;;;;;;14.50;7.82;;;6.00;99.90;;;;;;12421511;28;20050;-88
2022/01/23 11:37:21;;;;;;;11.55;6.07;;;6.00;99.90;;;;;;12390263;28;20650;-87
2022/01/23 11:56:25;;;;;;;14.90;6.90;;;6.00;99.90;;;;;;12390198;28;20045;-87
2022/01/23 12:02:37;;;;;;;13.73;7.95;;;6.20;99.90;;;;;;12368775;28;20066;-87
2022/01/23 12:08:39;;;;;;;13.52;7.30;;;6.20;99.90;;;;;;12390764;28;20070;-87
2022/01/23 12:20:45;;;;;;;11.43;7.05;;;6.10;99.90;;;;;;12393372;28;20464;-88
2022/01/23 12:26:47;;;;;;;13.13;6.93;;;6.10;99.90;;;;;;12382637;28;20439;-87
2022/01/23 12:33:12;;;;;;;10.07;6.43;;;6.30;99.90;;;;;;12371501;28;20129;-87
2022/01/23 12:39:18;;;;;;;11.43;6.50;;;6.30;99.90;;;;;;12391159;28;20572;-88
2022/01/23 12:45:43;;;;;;;9.80;6.00;;;6.30;99.90;;;;;;12372454;28;20454;-87
2022/01/23 12:51:48;;;;;;;11.20;7.03;;;6.40;99.90;;;;;;12371190;28;20889;-87
2022/01/23 12:57:50;;;;;;;;;;;6.40;99.90;;;;;;12373973;28;20111;-87
2022/01/23 13:03:53;;;;;;;7.20;4.93;;;6.30;99.90;;;;;;12381045;28;19925;-87
2022/01/23 13:10:06;;;;;;;6.60;3.00;;;6.30;99.90;;;;;;12375777;28;20069;-88
2022/01/23 13:35:14;;;;;;;8.13;4.25;;;6.30;99.90;;;;;;12401741;28;20145;-87
2022/01/23 13:41:24;;;;;;;7.07;3.60;;;6.20;99.90;;;;;;12403082;28;20137;-88
2022/01/23 14:00:12;;;;;;;4.82;2.92;;;6.20;99.90;;;;;;12395950;28;20050;-88
2022/01/23 14:06:14;;;;;;;6.22;3.63;;;6.20;99.90;;;;;;12388716;28;20494;-87
2022/01/23 14:12:20;;;;;;;6.85;4.50;;;6.20;99.90;;;;;;12399682;28;20045;-87
2022/01/23 14:18:35;;;;;;;9.43;4.60;;;6.10;99.90;;;;;;12399642;28;20487;-87
2022/01/23 14:24:37;;;;;;;9.27;5.15;;;6.00;99.90;;;;;;12397278;28;20054;-87
2022/01/23 14:30:47;;;;;;;7.97;4.45;;;6.00;99.90;;;;;;12384521;28;20054;-87
2022/01/23 14:36:56;;;;;;;7.38;4.35;;;6.00;99.90;;;;;;12395382;28;20400;-87
2022/01/23 14:43:06;;;;;;;7.78;5.05;;;6.00;99.90;;;;;;12392886;28;20053;-87
2022/01/23 14:49:11;;;;;;;8.90;5.55;;;5.90;99.90;;;;;;12399746;28;20161;-87
2022/01/23 14:55:13;;;;;;;8.13;4.88;;;5.90;99.90;;;;;;12382154;28;20082;-87
2022/01/23 15:01:17;;;;;;;8.18;5.20;;;5.90;99.90;;;;;;12381578;28;20438;-87
2022/01/23 15:07:20;;;;;;;8.18;5.53;;;5.90;99.90;;;;;;12391110;28;20088;-87
2022/01/23 15:13:22;;;;;;;8.52;5.65;;;5.90;99.90;;;;;;12375859;28;20052;-88
2022/01/23 15:19:24;;;;;;;9.15;5.93;;;5.80;99.90;;;;;;12370122;28;20150;-87
2022/01/23 15:25:27;;;;;;;8.07;5.10;;;5.80;99.90;;;;;;12374289;28;20050;-86
2022/01/23 15:31:28;;;;;;;7.95;5.50;;;5.80;99.90;;;;;;12395846;28;20103;-87
2022/01/23 15:37:31;;;;;;;10.65;5.93;;;5.80;99.90;;;;;;12379392;28;20165;-87
2022/01/23 15:43:33;;;;;;;9.95;6.47;;;5.70;99.90;;;;;;12393616;28;20078;-87
2022/01/23 15:49:35;;;;;;;13.70;6.85;;;5.70;99.90;;;;;;12391800;28;20104;-87
2022/01/23 15:55:38;;;;;;;10.48;6.72;;;5.60;99.90;;;;;;12388362;28;20054;-87
2022/01/23 16:01:40;;;;;;;9.63;6.57;;;5.60;99.90;;;;;;12393788;28;20647;-87
2022/01/23 16:07:42;;;;;;;12.27;7.20;;;5.50;99.90;;;;;;12404965;28;20524;-87
2022/01/23 16:13:45;;;;;;;10.50;6.85;;;5.60;99.90;;;;;;12411990;28;20133;-87
2022/01/23 16:19:47;;;;;;;10.30;6.97;;;5.60;99.90;;;;;;12402214;28;20057;-87
2022/01/23 16:25:52;;;;;;;10.60;6.47;;;5.50;99.90;;;;;;12383186;28;20049;-87
2022/01/23 16:31:58;;;;;;;17.58;10.23;;;5.50;99.90;;;;;;12393732;28;20153;-86
2022/01/23 16:38:01;;;;;;;20.35;10.70;;;5.40;99.90;;;;;;12383922;28;20109;-87
2022/01/23 16:44:04;;;;;;;12.63;7.63;;;5.40;99.90;;;;;;12382562;28;20141;-87
2022/01/23 16:50:06;;;;;;;12.77;7.57;;;5.50;99.90;;;;;;12394327;28;20042;-87
2022/01/23 16:56:08;;;;;;;15.25;8.95;;;5.40;99.90;;;;;;12382695;28;20054;-86
2022/01/23 17:02:10;;;;;;;14.95;8.73;;;5.40;99.90;;;;;;12390666;28;20042;-86
2022/01/23 17:08:14;;;;;;;19.00;10.75;;;5.40;99.90;;;;;;12381413;28;20081;-87
2022/01/23 17:14:16;;;;;;;14.18;8.85;;;5.40;99.90;;;;;;12382270;28;20077;-87
2022/01/23 17:20:20;;;;;;;14.23;8.80;;;5.40;99.90;;;;;;12373413;28;20121;-86
2022/01/23 17:26:26;;;;;;;12.68;7.10;;;5.40;99.90;;;;;;12390331;28;20137;-87
2022/01/23 17:32:28;;;;;;;14.43;8.68;;;5.40;99.90;;;;;;12389296;28;20049;-86
2022/01/23 17:38:48;;;;;;;15.52;7.50;;;5.40;99.90;;;;;;12377149;28;20100;-87
2022/01/23 17:44:52;;;;;;;9.55;6.18;;;5.40;99.90;;;;;;12378526;28;20132;-86
2022/01/23 17:50:54;;;;;;;9.52;6.25;;;5.30;99.90;;;;;;12381081;28;20486;-87
2022/01/23 17:56:56;;;;;;;11.85;8.05;;;5.30;99.90;;;;;;12376659;28;20501;-87
2022/01/23 18:02:58;;;;;;;11.65;8.23;;;5.30;99.90;;;;;;12375043;28;20093;-86
2022/01/23 18:09:00;;;;;;;12.77;8.43;;;5.30;99.90;;;;;;12374602;28;20051;-87
2022/01/23 18:15:03;;;;;;;11.35;7.82;;;5.20;99.90;;;;;;12373884;28;20133;-87
2022/01/23 18:21:05;;;;;;;11.15;8.07;;;5.30;99.90;;;;;;12391631;28;20569;-87
2022/01/23 18:27:09;;;;;;;11.15;7.80;;;5.20;99.90;;;;;;12373339;28;20562;-86
2022/01/23 18:33:12;;;;;;;8.80;6.32;;;5.20;99.90;;;;;;12384753;28;20046;-87
2022/01/23 18:39:14;;;;;;;11.02;6.70;;;5.10;99.90;;;;;;12390036;28;20506;-87
2022/01/23 18:45:16;;;;;;;10.05;6.53;;;5.10;99.90;;;;;;12381114;28;20081;-87
2022/01/23 18:51:24;;;;;;;10.23;6.43;;;5.20;99.90;;;;;;12389397;28;20048;-86
2022/01/23 18:57:40;;;;;;;12.23;6.78;;;5.20;99.90;;;;;;12392753;28;20049;-87
2022/01/23 19:04:04;;;;;;;9.23;6.50;;;5.20;99.90;;;;;;12375114;28;20060;-87
2022/01/23 19:10:06;;;;;;;9.83;5.87;;;5.20;99.90;;;;;;12389055;28;20096;-87
2022/01/23 19:16:08;;;;;;;11.10;6.40;;;5.20;99.90;;;;;;12390672;28;20112;-86
2022/01/23 19:22:10;;;;;;;8.75;6.22;;;5.20;99.90;;;;;;12415056;28;20049;-87
2022/01/23 19:28:15;;;;;;;9.18;6.45;;;5.20;99.90;;;;;;12389977;28;20039;-87
2022/01/23 19:34:17;;;;;;;8.85;6.25;;;5.20;99.90;;;;;;12420698;28;20049;-87
2022/01/23 19:40:27;;;;;;;12.13;6.10;;;5.10;99.90;;;;;;12396064;28;20128;-87
2022/01/23 19:46:34;;;;;;;10.38;6.57;;;5.10;99.90;;;;;;12405445;28;20200;-87
2022/01/23 19:52:35;;;;;;;9.68;5.97;;;5.10;99.90;;;;;;12401907;28;20136;-87
2022/01/23 19:58:37;;;;;;;8.73;5.47;;;5.00;99.90;;;;;;12394507;28;20084;-87
2022/01/23 20:04:39;;;;;;;9.32;5.85;;;5.00;99.90;;;;;;12380515;28;20080;-87
2022/01/23 20:16:47;;;;;;;8.07;5.57;;;5.00;99.90;;;;;;12395671;28;20145;-87
2022/01/23 20:22:50;;;;;;;9.23;5.95;;;5.00;99.90;;;;;;12376762;28;20156;-86
2022/01/23 20:28:52;;;;;;;8.20;5.88;;;5.00;99.90;;;;;;12380180;28;20080;-87
2022/01/23 20:34:53;;;;;;;9.07;5.82;;;5.00;99.90;;;;;;12386661;28;20069;-86
2022/01/23 20:47:07;;;;;;;8.35;5.38;;;5.00;99.90;;;;;;12395167;28;20128;-86
2022/01/23 20:53:48;;;;;;;8.77;5.22;;;4.90;99.90;;;;;;12381153;28;20056;-86
2022/01/23 20:59:30;;;;;;;8.05;5.60;;;5.00;99.90;;;;;;12389358;28;20544;-86
2022/01/23 21:05:32;;;;;;;10.18;6.03;;;5.00;99.90;;;;;;12378919;28;20043;-86
2022/01/23 21:11:34;;;;;;;10.32;6.10;;;5.00;99.90;;;;;;12371028;28;20054;-86
2022/01/23 21:42:15;;;;;;;9.65;6.35;;;4.90;99.90;;;;;;12392387;28;20049;-86
2022/01/23 21:48:18;;;;;;;10.80;5.97;;;5.00;99.90;;;;;;12379615;28;20070;-87
2022/01/23 21:54:19;;;;;;;9.32;6.18;;;5.00;99.90;;;;;;12390092;28;20144;-86
2022/01/23 22:00:24;;;;;;;10.13;5.93;;;5.00;99.90;;;;;;12394058;28;20465;-86
2022/01/23 22:06:26;;;;;;;7.13;4.25;;;5.10;99.90;;;;;;12401641;28;20097;-87
2022/01/23 22:18:37;;;;;;;9.23;5.80;;;5.10;99.90;;;;;;12396607;28;20049;-87
2022/01/23 22:31:00;;;;;;;7.50;4.65;;;5.00;99.90;;;;;;12399492;28;20533;-87
2022/01/23 22:37:02;;;;;;;8.98;5.43;;;5.00;99.90;;;;;;12378530;28;20054;-87
2022/01/23 22:43:04;;;;;;;11.20;6.10;;;5.00;99.90;;;;;;12390490;28;20128;-86
2022/01/23 22:49:08;;;;;;;9.38;6.00;;;4.90;99.90;;;;;;12392908;28;20055;-87
2022/01/23 22:55:10;;;;;;;12.85;6.68;;;5.00;99.90;;;;;;12385927;28;20173;-87
2022/01/23 23:01:13;;;;;;;11.35;6.38;;;4.90;99.90;;;;;;12386442;28;20186;-86
2022/01/23 23:07:15;;;;;;;8.27;5.90;;;4.90;99.90;;;;;;12386066;28;20604;-87
2022/01/23 23:13:22;;;;;;;11.55;6.35;;;4.90;99.90;;;;;;12394217;28;20161;-87
2022/01/23 23:19:25;;;;;;;11.32;6.93;;;4.90;99.90;;;;;;12397074;28;20053;-86
2022/01/23 23:25:27;;;;;;;12.25;7.93;;;4.90;99.90;;;;;;12376810;28;20050;-87
2022/01/23 23:31:30;;;;;;;13.90;7.72;;;4.90;99.90;;;;;;12390533;28;20129;-87
2022/01/23 23:37:31;;;;;;;12.02;7.15;;;4.90;99.90;;;;;;12385680;28;21157;-86
2022/01/23 23:49:43;;;;;;;11.63;7.47;;;4.80;99.90;;;;;;12391603;28;20057;-87
2022/01/23 23:55:47;;;;;;;12.23;8.68;;;4.80;99.90;;;;;;12385090;28;20475;-87
